Time;durP1;ratioP1;P1;durP2;ratioP2;P2;SDS_P1;SDS_P2;PMS_P1;PMS_P2;Temp;Humidity;BMP_temperature;BMP_pressure;BME280_temperature;BME280_humidity;BME280_pressure;Samples;Min_cycle;Max_cycle;Signal;HPM_P1;HPM_P2
2021/10/17 00:01:25;;;;;;;4.33;3.97;;;3.10;99.90;;;;;;5014345;28;20486;-65
2021/10/17 00:03:50;;;;;;;7.37;4.57;;;3.10;99.90;;;;;;5014361;28;20169;-65
2021/10/17 00:06:17;;;;;;;3.93;3.50;;;3.00;99.90;;;;;;5014278;28;20166;-65
2021/10/17 00:08:43;;;;;;;4.70;3.90;;;3.00;99.90;;;;;;5013722;28;20511;-65
2021/10/17 00:11:08;;;;;;;5.70;4.10;;;3.00;99.90;;;;;;5014194;28;20451;-65
2021/10/17 00:13:34;;;;;;;6.30;4.37;;;3.00;99.90;;;;;;5014016;28;20227;-65
2021/10/17 00:15:59;;;;;;;6.07;3.67;;;3.00;99.90;;;;;;5014076;28;20226;-65
2021/10/17 00:18:25;;;;;;;6.67;3.07;;;3.00;99.90;;;;;;5013455;28;20264;-65
2021/10/17 00:20:51;;;;;;;3.70;3.40;;;3.00;99.90;;;;;;5012867;28;20643;-64
2021/10/17 00:23:17;;;;;;;3.80;3.47;;;2.90;99.90;;;;;;5014055;28;20634;-66
2021/10/17 00:25:42;;;;;;;4.33;2.80;;;2.90;99.90;;;;;;5013840;28;20165;-65
2021/10/17 00:28:08;;;;;;;9.40;3.97;;;2.90;99.90;;;;;;5013510;28;20166;-65
2021/10/17 00:30:34;;;;;;;3.20;2.90;;;2.80;99.90;;;;;;5013712;28;20648;-64
2021/10/17 00:32:59;;;;;;;3.70;3.20;;;2.80;99.90;;;;;;5013859;28;20550;-65
2021/10/17 00:35:25;;;;;;;6.10;3.90;;;2.70;99.90;;;;;;5014292;28;20174;-65
2021/10/17 00:37:50;;;;;;;8.63;3.37;;;2.80;99.90;;;;;;5013763;28;20178;-64
2021/10/17 00:40:19;;;;;;;4.37;3.97;;;2.80;99.90;;;;;;5013236;28;20196;-65
2021/10/17 00:42:46;;;;;;;3.13;2.83;;;2.70;99.90;;;;;;5013579;28;20170;-64
2021/10/17 00:45:14;;;;;;;3.57;2.90;;;2.70;99.90;;;;;;5013638;28;20960;-64
2021/10/17 00:47:40;;;;;;;2.70;2.50;;;2.70;99.90;;;;;;5012138;28;20413;-65
2021/10/17 00:50:07;;;;;;;6.43;3.83;;;2.70;99.90;;;;;;5013165;28;20772;-65
2021/10/17 00:52:34;;;;;;;6.67;3.53;;;2.60;99.90;;;;;;5013505;28;20983;-65
2021/10/17 00:55:00;;;;;;;5.00;3.27;;;2.60;99.90;;;;;;5013305;28;20776;-65
2021/10/17 00:57:25;;;;;;;4.03;3.37;;;2.70;99.90;;;;;;5013418;28;20411;-65
2021/10/17 00:59:51;;;;;;;4.67;4.10;;;2.60;99.90;;;;;;5012786;28;20786;-65
2021/10/17 01:02:16;;;;;;;6.37;3.17;;;2.60;99.90;;;;;;5013253;28;20204;-65
2021/10/17 01:04:43;;;;;;;3.13;2.53;;;2.60;99.90;;;;;;5013224;28;20169;-65
2021/10/17 01:07:09;;;;;;;4.03;3.30;;;2.60;99.90;;;;;;5013189;28;20161;-65
2021/10/17 01:09:35;;;;;;;3.70;2.97;;;2.50;99.90;;;;;;5012818;28;21034;-65
2021/10/17 01:12:02;;;;;;;5.07;3.70;;;2.50;99.90;;;;;;5013386;28;20767;-64
2021/10/17 01:14:28;;;;;;;3.67;3.30;;;2.40;99.90;;;;;;5013037;28;20408;-65
2021/10/17 01:16:54;;;;;;;4.67;3.17;;;2.40;99.90;;;;;;5013215;28;20414;-64
2021/10/17 01:19:21;;;;;;;2.80;2.60;;;2.30;99.90;;;;;;5012543;28;20908;-65
2021/10/17 01:21:48;;;;;;;5.67;3.20;;;2.30;99.90;;;;;;5013448;28;20459;-65
2021/10/17 01:24:14;;;;;;;3.53;3.23;;;2.30;99.90;;;;;;5012847;28;20929;-65
2021/10/17 01:26:40;;;;;;;3.60;2.90;;;2.30;99.90;;;;;;5012910;28;20446;-65
2021/10/17 01:29:06;;;;;;;3.40;2.83;;;2.30;99.90;;;;;;5012701;28;20733;-65
2021/10/17 01:31:34;;;;;;;3.13;2.83;;;2.20;99.90;;;;;;5012801;28;20462;-64
2021/10/17 01:34:00;;;;;;;3.77;2.90;;;2.30;99.90;;;;;;5012826;28;20451;-65
2021/10/17 01:36:26;;;;;;;2.87;2.57;;;2.20;99.90;;;;;;5012720;28;20867;-64
2021/10/17 01:38:51;;;;;;;5.20;3.13;;;2.30;99.90;;;;;;5012239;28;20220;-66
2021/10/17 01:41:17;;;;;;;3.00;2.30;;;2.30;99.90;;;;;;5012535;28;20208;-64
2021/10/17 01:43:42;;;;;;;4.37;2.87;;;2.20;99.90;;;;;;5012677;28;20204;-65
2021/10/17 01:46:08;;;;;;;4.57;3.33;;;2.30;99.90;;;;;;5012673;28;20215;-65
2021/10/17 01:48:34;;;;;;;3.97;3.03;;;2.20;99.90;;;;;;5012283;28;20290;-64
2021/10/17 01:50:59;;;;;;;7.80;3.43;;;2.20;99.90;;;;;;5012362;28;20185;-65
2021/10/17 01:53:28;;;;;;;2.97;2.77;;;2.20;99.90;;;;;;5012401;28;20196;-65
2021/10/17 01:55:56;;;;;;;2.90;2.70;;;2.20;99.90;;;;;;5012684;28;20177;-65
2021/10/17 01:58:22;;;;;;;4.00;3.07;;;2.20;99.90;;;;;;5012016;28;20416;-66
2021/10/17 02:00:48;;;;;;;2.70;2.50;;;2.10;99.90;;;;;;5011390;28;20831;-65
2021/10/17 02:03:14;;;;;;;3.43;3.13;;;2.20;99.90;;;;;;5012721;28;20409;-65
2021/10/17 02:05:39;;;;;;;3.60;2.50;;;2.20;99.90;;;;;;5012320;28;20193;-64
2021/10/17 02:08:05;;;;;;;3.93;3.03;;;2.10;99.90;;;;;;5011838;28;20231;-65
2021/10/17 02:10:30;;;;;;;3.50;2.80;;;2.10;99.90;;;;;;5012089;28;20200;-64
2021/10/17 02:12:56;;;;;;;6.83;2.50;;;2.10;99.90;;;;;;5012183;28;20169;-64
2021/10/17 02:15:21;;;;;;;3.23;2.93;;;2.00;99.90;;;;;;5012193;28;20188;-65
2021/10/17 02:17:47;;;;;;;3.17;2.67;;;2.00;99.90;;;;;;5012129;28;20169;-65
2021/10/17 02:20:13;;;;;;;3.20;2.93;;;2.10;99.90;;;;;;5011609;28;20201;-65
2021/10/17 02:22:38;;;;;;;3.67;3.37;;;2.10;99.90;;;;;;5011961;28;20173;-65
2021/10/17 02:25:04;;;;;;;5.07;2.37;;;2.10;99.90;;;;;;5012070;28;20420;-65
2021/10/17 02:27:30;;;;;;;2.00;1.90;;;2.10;99.90;;;;;;5011987;28;20216;-65
2021/10/17 02:29:55;;;;;;;5.27;2.73;;;2.10;99.90;;;;;;5011616;28;20507;-65
2021/10/17 02:32:21;;;;;;;5.60;2.70;;;2.10;99.90;;;;;;5012061;28;20177;-65
2021/10/17 02:34:46;;;;;;;2.47;2.33;;;2.00;99.90;;;;;;5011993;28;20173;-65
2021/10/17 02:37:12;;;;;;;5.40;3.00;;;2.00;99.90;;;;;;5011847;28;20178;-65
2021/10/17 02:39:38;;;;;;;3.53;2.30;;;2.00;99.90;;;;;;5011414;28;20247;-65
2021/10/17 02:42:04;;;;;;;3.10;2.90;;;2.00;99.90;;;;;;5011958;28;20286;-65
2021/10/17 02:44:29;;;;;;;6.70;2.87;;;2.00;99.90;;;;;;5011907;28;20179;-65
2021/10/17 02:46:56;;;;;;;3.10;2.80;;;2.00;99.90;;;;;;5011841;28;20404;-65
2021/10/17 02:49:22;;;;;;;3.83;2.97;;;2.00;99.90;;;;;;5011352;28;20165;-65
2021/10/17 02:51:47;;;;;;;4.53;4.10;;;1.90;99.90;;;;;;5011741;28;20418;-65
2021/10/17 02:54:13;;;;;;;5.67;2.60;;;1.90;99.90;;;;;;5011789;28;20591;-65
2021/10/17 02:56:38;;;;;;;4.57;2.90;;;1.90;99.90;;;;;;5011679;28;20553;-65
2021/10/17 02:59:04;;;;;;;3.37;2.57;;;1.80;99.90;;;;;;5011347;28;20551;-65
2021/10/17 03:01:29;;;;;;;1.93;1.83;;;1.80;99.90;;;;;;5011582;28;20209;-65
2021/10/17 03:03:55;;;;;;;2.50;2.30;;;1.80;99.90;;;;;;5011726;28;20194;-65
2021/10/17 03:06:25;;;;;;;4.63;2.80;;;1.70;99.90;;;;;;5011575;28;20172;-65
2021/10/17 03:08:51;;;;;;;3.43;3.13;;;1.80;99.90;;;;;;5011555;28;20169;-65
2021/10/17 03:11:17;;;;;;;4.70;3.20;;;1.80;99.90;;;;;;5011530;28;20435;-65
2021/10/17 03:13:42;;;;;;;3.43;2.50;;;1.80;99.90;;;;;;5015049;28;20642;-65
2021/10/17 03:16:08;;;;;;;3.33;2.80;;;1.80;99.90;;;;;;5015314;28;20641;-65
2021/10/17 03:18:33;;;;;;;3.40;2.40;;;1.70;99.90;;;;;;5015002;28;20165;-65
2021/10/17 03:20:59;;;;;;;3.00;2.47;;;1.70;99.90;;;;;;5014965;28;20201;-65
2021/10/17 03:23:25;;;;;;;2.17;1.90;;;1.80;99.90;;;;;;5015165;28;20692;-65
2021/10/17 03:25:50;;;;;;;2.60;2.40;;;1.80;99.90;;;;;;5015129;28;20592;-65
2021/10/17 03:28:16;;;;;;;3.17;2.87;;;1.80;99.90;;;;;;5014816;28;20197;-65
2021/10/17 03:30:42;;;;;;;2.30;2.03;;;1.80;99.90;;;;;;5014906;28;20197;-65
2021/10/17 03:33:07;;;;;;;2.90;2.70;;;1.70;99.90;;;;;;5015037;28;20619;-65
2021/10/17 03:35:33;;;;;;;3.03;2.77;;;1.70;99.90;;;;;;5014804;28;20576;-65
2021/10/17 03:37:58;;;;;;;4.70;3.10;;;1.70;99.90;;;;;;5014654;28;20583;-65
2021/10/17 03:40:24;;;;;;;2.70;2.00;;;1.70;99.90;;;;;;5014603;28;20190;-65
2021/10/17 03:42:49;;;;;;;3.50;3.30;;;1.70;99.90;;;;;;5014840;28;20165;-64
2021/10/17 03:45:16;;;;;;;2.30;2.20;;;1.70;99.90;;;;;;5014836;28;20169;-64
2021/10/17 03:47:42;;;;;;;3.00;2.80;;;1.60;99.90;;;;;;5014804;28;20205;-65
2021/10/17 03:50:08;;;;;;;4.67;3.40;;;1.60;99.90;;;;;;5014214;28;20475;-65
2021/10/17 03:52:34;;;;;;;3.43;2.00;;;1.50;99.90;;;;;;5014839;28;20177;-65
2021/10/17 03:54:59;;;;;;;4.73;2.50;;;1.50;99.90;;;;;;5014484;28;20853;-64
2021/10/17 03:57:25;;;;;;;2.07;1.97;;;1.50;99.90;;;;;;5014586;28;20196;-65
2021/10/17 03:59:51;;;;;;;2.57;2.07;;;1.60;99.90;;;;;;5013957;28;20224;-65
2021/10/17 04:02:16;;;;;;;1.90;1.80;;;1.60;99.90;;;;;;5014424;28;20211;-65
2021/10/17 04:04:42;;;;;;;3.17;2.97;;;1.60;99.90;;;;;;5014398;28;20537;-65
2021/10/17 04:07:07;;;;;;;3.03;2.13;;;1.60;99.90;;;;;;5014330;28;20267;-65
2021/10/17 04:09:33;;;;;;;1.87;1.77;;;1.50;99.90;;;;;;5013939;28;20217;-65
2021/10/17 04:11:58;;;;;;;2.17;2.07;;;1.50;99.90;;;;;;5014285;28;20173;-65
2021/10/17 04:14:24;;;;;;;2.93;1.97;;;1.50;99.90;;;;;;5014280;28;20256;-65
2021/10/17 04:16:50;;;;;;;2.00;1.70;;;1.50;99.90;;;;;;5014251;28;20559;-65
2021/10/17 04:19:15;;;;;;;3.97;3.13;;;1.50;99.90;;;;;;5013590;28;20536;-65
2021/10/17 04:21:41;;;;;;;2.00;1.90;;;1.50;99.90;;;;;;5014008;28;20208;-64
2021/10/17 04:24:07;;;;;;;2.30;2.17;;;1.50;99.90;;;;;;5013723;28;20598;-65
2021/10/17 04:26:34;;;;;;;2.53;2.33;;;1.50;99.90;;;;;;5014037;28;20166;-64
2021/10/17 04:28:59;;;;;;;2.90;2.40;;;1.60;99.90;;;;;;5013584;28;20416;-65
2021/10/17 04:31:25;;;;;;;2.50;2.30;;;1.60;99.90;;;;;;5013781;28;20424;-65
2021/10/17 04:33:50;;;;;;;3.13;2.43;;;1.60;99.90;;;;;;5014376;28;20656;-65
2021/10/17 04:36:16;;;;;;;2.00;1.90;;;1.50;99.90;;;;;;5013790;28;20684;-65
2021/10/17 04:38:42;;;;;;;1.70;1.60;;;1.50;99.90;;;;;;5013395;28;20177;-65
2021/10/17 04:41:08;;;;;;;1.93;1.83;;;1.50;99.90;;;;;;5013594;28;20694;-64
2021/10/17 04:43:35;;;;;;;2.20;2.10;;;1.50;99.90;;;;;;5013701;28;20413;-64
2021/10/17 04:46:02;;;;;;;2.23;2.03;;;1.40;99.90;;;;;;5014086;28;20177;-65
2021/10/17 04:48:27;;;;;;;3.80;3.50;;;1.40;99.90;;;;;;5013122;28;20967;-65
2021/10/17 04:50:53;;;;;;;3.33;1.70;;;1.50;99.90;;;;;;5013366;28;20424;-64
2021/10/17 04:53:18;;;;;;;2.73;2.47;;;1.40;99.90;;;;;;5013703;28;20169;-64
2021/10/17 04:55:44;;;;;;;4.70;2.10;;;1.40;99.90;;;;;;5013673;28;20455;-64
2021/10/17 04:58:09;;;;;;;3.00;1.80;;;1.40;99.90;;;;;;5013138;28;20646;-65
2021/10/17 05:00:35;;;;;;;2.53;2.00;;;1.40;99.90;;;;;;5013004;28;20209;-65
2021/10/17 05:03:00;;;;;;;3.03;2.33;;;1.30;99.90;;;;;;5013268;28;20618;-64
2021/10/17 05:05:26;;;;;;;1.93;1.83;;;1.40;99.90;;;;;;5013287;28;20173;-64
2021/10/17 05:07:52;;;;;;;2.53;2.33;;;1.30;99.90;;;;;;5013382;28;20544;-65
2021/10/17 05:10:17;;;;;;;3.43;2.60;;;1.30;99.90;;;;;;5012992;28;20189;-65
2021/10/17 05:12:43;;;;;;;2.50;2.40;;;1.30;99.90;;;;;;5013236;28;20165;-64
2021/10/17 05:15:08;;;;;;;3.53;2.20;;;1.30;99.90;;;;;;5013161;28;20707;-64
2021/10/17 05:17:34;;;;;;;2.70;2.50;;;1.30;99.90;;;;;;5013047;28;20208;-65
2021/10/17 05:19:59;;;;;;;2.93;2.47;;;1.20;99.90;;;;;;5012611;28;20799;-65
2021/10/17 05:22:25;;;;;;;3.47;3.17;;;1.20;99.90;;;;;;5012978;28;20578;-64
2021/10/17 05:24:51;;;;;;;5.70;2.47;;;1.20;99.90;;;;;;5012952;28;20688;-64
2021/10/17 05:27:16;;;;;;;2.20;2.10;;;1.20;99.90;;;;;;5012819;28;20245;-64
2021/10/17 05:29:42;;;;;;;2.37;2.27;;;1.20;99.90;;;;;;5012448;28;20196;-64
2021/10/17 05:32:07;;;;;;;2.27;2.17;;;1.20;99.90;;;;;;5012807;28;20169;-65
2021/10/17 05:34:33;;;;;;;2.33;2.23;;;1.20;99.90;;;;;;5012007;28;20292;-64
2021/10/17 05:36:58;;;;;;;3.20;2.90;;;1.20;99.90;;;;;;5012766;28;20642;-64
2021/10/17 05:39:24;;;;;;;3.27;2.97;;;1.10;99.90;;;;;;5012232;28;20658;-65
2021/10/17 05:41:50;;;;;;;2.10;2.00;;;1.20;99.90;;;;;;5012556;28;20204;-66
2021/10/17 05:44:15;;;;;;;2.80;2.60;;;1.20;99.90;;;;;;5012635;28;20408;-64
2021/10/17 05:46:41;;;;;;;3.90;2.13;;;1.20;99.90;;;;;;5012532;28;20172;-65
2021/10/17 05:49:06;;;;;;;4.30;2.27;;;1.30;99.90;;;;;;5012095;28;20260;-65
2021/10/17 05:51:32;;;;;;;2.33;2.13;;;1.30;99.90;;;;;;5012578;28;20255;-64
2021/10/17 05:53:58;;;;;;;5.07;2.47;;;1.30;99.90;;;;;;5012358;28;20185;-64
2021/10/17 05:56:24;;;;;;;1.87;1.77;;;1.30;99.90;;;;;;5012838;28;20412;-64
2021/10/17 05:58:49;;;;;;;1.80;1.70;;;1.30;99.90;;;;;;5012090;28;20173;-64
2021/10/17 06:01:15;;;;;;;2.30;2.20;;;1.30;99.90;;;;;;5012152;28;20287;-66
2021/10/17 06:03:40;;;;;;;2.00;1.90;;;1.30;99.90;;;;;;5012264;28;20197;-65
2021/10/17 06:06:06;;;;;;;2.90;2.10;;;1.20;99.90;;;;;;5012442;28;20212;-64
2021/10/17 06:08:34;;;;;;;3.10;1.90;;;1.30;99.90;;;;;;5012079;28;20547;-65
2021/10/17 06:11:00;;;;;;;2.30;2.20;;;1.30;99.90;;;;;;5012203;28;20189;-64
2021/10/17 06:13:26;;;;;;;3.53;2.97;;;1.30;99.90;;;;;;5012256;28;20400;-65
2021/10/17 06:15:51;;;;;;;2.20;2.10;;;1.30;99.90;;;;;;5012150;28;20184;-65
2021/10/17 06:18:17;;;;;;;1.80;1.70;;;1.30;99.90;;;;;;5011752;28;20415;-64
2021/10/17 06:20:42;;;;;;;1.90;1.80;;;1.30;99.90;;;;;;5011901;28;20197;-65
2021/10/17 06:23:08;;;;;;;2.97;2.77;;;1.40;99.90;;;;;;5012019;28;20162;-64
2021/10/17 06:25:33;;;;;;;2.40;2.30;;;1.30;99.90;;;;;;5011998;28;20173;-64
2021/10/17 06:28:01;;;;;;;2.57;2.17;;;1.40;99.90;;;;;;5011305;28;20162;-65
2021/10/17 06:30:27;;;;;;;2.73;2.20;;;1.40;99.90;;;;;;5011842;28;20567;-65
2021/10/17 06:32:52;;;;;;;3.43;2.20;;;1.40;99.90;;;;;;5011991;28;20465;-65
2021/10/17 06:35:18;;;;;;;2.70;2.50;;;1.50;99.90;;;;;;5011994;28;20397;-65
2021/10/17 06:37:44;;;;;;;2.20;2.00;;;1.40;99.90;;;;;;5011904;28;20634;-65
2021/10/17 06:40:11;;;;;;;2.10;1.97;;;1.50;99.90;;;;;;5011568;28;20185;-64
2021/10/17 06:42:36;;;;;;;2.37;2.17;;;1.50;99.90;;;;;;5011798;28;20197;-65
2021/10/17 06:45:02;;;;;;;2.23;2.13;;;1.50;99.90;;;;;;5011840;28;20771;-65
2021/10/17 06:47:28;;;;;;;2.07;1.87;;;1.50;99.90;;;;;;5015042;28;20200;-64
2021/10/17 06:49:53;;;;;;;2.33;2.23;;;1.60;99.90;;;;;;5015391;28;20467;-64
2021/10/17 06:52:19;;;;;;;2.63;2.20;;;1.70;99.90;;;;;;5015799;28;20184;-64
2021/10/17 06:54:44;;;;;;;2.57;2.43;;;1.80;99.90;;;;;;5015752;28;20177;-64
2021/10/17 06:57:10;;;;;;;4.23;2.50;;;1.80;99.90;;;;;;5016228;28;20193;-64
2021/10/17 06:59:35;;;;;;;3.07;2.90;;;2.00;99.90;;;;;;5015513;28;20212;-64
2021/10/17 07:02:01;;;;;;;4.60;2.77;;;2.00;99.90;;;;;;5015403;28;20197;-64
2021/10/17 07:04:27;;;;;;;2.80;2.60;;;2.10;99.90;;;;;;5015928;28;20173;-64
2021/10/17 07:06:52;;;;;;;5.33;2.90;;;2.20;99.90;;;;;;5015505;28;20165;-64
2021/10/17 07:09:18;;;;;;;2.30;2.10;;;2.30;99.90;;;;;;5015043;28;20536;-65
2021/10/17 07:11:44;;;;;;;3.00;2.80;;;2.30;99.90;;;;;;5015429;28;20232;-65
2021/10/17 07:14:10;;;;;;;3.27;3.00;;;2.40;99.90;;;;;;5015393;28;20231;-64
2021/10/17 07:16:35;;;;;;;2.97;2.77;;;2.40;99.90;;;;;;5015294;28;20491;-65
2021/10/17 07:19:01;;;;;;;6.97;2.87;;;2.50;99.90;;;;;;5015030;28;20173;-64
2021/10/17 07:21:27;;;;;;;3.90;3.07;;;2.50;99.90;;;;;;5015214;28;20201;-65
2021/10/17 07:23:52;;;;;;;2.53;2.33;;;2.60;99.90;;;;;;5015254;28;20158;-65
2021/10/17 07:26:18;;;;;;;3.33;2.70;;;2.70;99.90;;;;;;5015191;28;20247;-65
2021/10/17 07:28:43;;;;;;;2.40;2.30;;;2.80;99.90;;;;;;5014713;28;20253;-65
2021/10/17 07:31:09;;;;;;;4.20;2.77;;;2.90;99.90;;;;;;5014987;28;20189;-65
2021/10/17 07:33:35;;;;;;;3.10;2.90;;;3.00;99.90;;;;;;5015063;28;20227;-64
2021/10/17 07:36:01;;;;;;;4.93;4.43;;;3.10;99.90;;;;;;5015109;28;20212;-64
2021/10/17 07:38:26;;;;;;;4.23;3.83;;;3.20;99.90;;;;;;5014572;28;20444;-66
2021/10/17 07:40:52;;;;;;;10.93;4.20;;;3.30;99.90;;;;;;5014697;28;20228;-65
2021/10/17 07:43:17;;;;;;;3.70;3.40;;;3.40;99.90;;;;;;5013639;28;20173;-65
2021/10/17 07:45:43;;;;;;;3.50;3.30;;;3.50;99.90;;;;;;5014721;28;20556;-65
2021/10/17 07:48:10;;;;;;;3.63;3.43;;;3.70;99.90;;;;;;5014511;28;20177;-64
2021/10/17 07:50:36;;;;;;;4.57;3.60;;;3.90;99.90;;;;;;5013235;28;20189;-64
2021/10/17 07:53:01;;;;;;;4.70;4.30;;;4.00;99.90;;;;;;5014580;28;20923;-65
2021/10/17 07:55:27;;;;;;;4.63;3.10;;;4.20;99.90;;;;;;5014518;28;20477;-65
2021/10/17 07:57:54;;;;;;;3.53;3.23;;;4.40;99.90;;;;;;5013571;28;20162;-64
2021/10/17 08:00:21;;;;;;;4.23;3.93;;;4.50;99.90;;;;;;5013805;28;20201;-64
2021/10/17 08:02:47;;;;;;;4.77;4.30;;;4.70;99.90;;;;;;5014451;28;20439;-65
2021/10/17 08:05:13;;;;;;;3.80;3.50;;;4.80;99.90;;;;;;5014398;28;20487;-65
2021/10/17 08:07:39;;;;;;;5.73;3.53;;;5.00;99.90;;;;;;5014392;28;20173;-63
2021/10/17 08:10:06;;;;;;;9.27;4.00;;;5.20;99.90;;;;;;5013863;28;20428;-64
2021/10/17 08:12:32;;;;;;;3.90;3.70;;;5.30;99.90;;;;;;5014173;28;20438;-63
2021/10/17 08:14:58;;;;;;;3.40;3.10;;;5.50;99.90;;;;;;5014114;28;20427;-64
2021/10/17 08:17:23;;;;;;;4.10;3.80;;;5.80;99.90;;;;;;5014139;28;20248;-64
2021/10/17 08:19:51;;;;;;;4.93;3.73;;;6.00;99.90;;;;;;5013655;28;20193;-64
2021/10/17 08:22:17;;;;;;;6.23;3.57;;;6.20;99.90;;;;;;5014072;28;20215;-64
2021/10/17 08:24:42;;;;;;;5.00;4.60;;;6.50;99.90;;;;;;5014045;28;20408;-64
2021/10/17 08:27:08;;;;;;;16.57;11.03;;;6.90;99.90;;;;;;5013880;28;20400;-64
2021/10/17 08:29:34;;;;;;;5.73;5.17;;;7.30;99.90;;;;;;5013495;28;20193;-65
2021/10/17 08:31:59;;;;;;;4.47;4.07;;;7.70;99.90;;;;;;5013953;28;20174;-64
2021/10/17 08:34:25;;;;;;;5.30;3.70;;;8.00;99.90;;;;;;5013895;28;20230;-65
2021/10/17 08:36:50;;;;;;;4.47;3.20;;;8.50;99.90;;;;;;5013883;28;20261;-64
2021/10/17 08:39:16;;;;;;;3.37;2.90;;;8.80;99.90;;;;;;5013350;28;20182;-65
2021/10/17 08:41:41;;;;;;;3.67;3.37;;;9.20;99.90;;;;;;5013662;28;20207;-65
2021/10/17 08:44:07;;;;;;;8.70;3.40;;;9.60;99.90;;;;;;5013560;28;20173;-64
2021/10/17 08:46:33;;;;;;;3.70;2.83;;;10.00;98.90;;;;;;5013671;28;20542;-65
2021/10/17 08:48:59;;;;;;;2.67;2.50;;;10.30;97.60;;;;;;5013227;28;20169;-65
2021/10/17 08:51:26;;;;;;;3.83;3.07;;;10.60;98.20;;;;;;5013519;28;20498;-65
2021/10/17 08:53:52;;;;;;;3.20;2.83;;;10.90;94.30;;;;;;5013523;28;20462;-65
2021/10/17 08:56:19;;;;;;;2.47;2.27;;;11.10;95.40;;;;;;5013453;28;20928;-65
2021/10/17 08:58:44;;;;;;;4.30;3.43;;;11.40;93.90;;;;;;5013137;28;20436;-65
2021/10/17 09:01:12;;;;;;;2.80;2.60;;;11.60;92.70;;;;;;5013241;28;20510;-65
2021/10/17 09:03:38;;;;;;;3.80;2.73;;;11.80;91.30;;;;;;5013364;28;20642;-65
2021/10/17 09:06:26;;;;;;;3.53;3.00;;;12.30;92.60;;;;;;5013334;28;20412;-65
2021/10/17 09:09:06;;;;;;;2.97;2.50;;;12.50;90.60;;;;;;5012765;28;20165;-65
2021/10/17 09:11:40;;;;;;;2.80;2.60;;;12.40;89.20;;;;;;5013332;28;20947;-66
2021/10/17 09:14:08;;;;;;;2.40;2.30;;;12.90;90.60;;;;;;5013201;28;20441;-65
2021/10/17 09:16:53;;;;;;;3.13;2.83;;;13.30;90.50;;;;;;5013139;28;20443;-65
2021/10/17 09:19:28;;;;;;;4.07;2.40;;;13.60;87.80;;;;;;5012496;28;20401;-65
2021/10/17 09:22:08;;;;;;;4.70;2.80;;;13.70;85.90;;;;;;5012985;28;20531;-65
2021/10/17 09:24:38;;;;;;;2.83;2.53;;;14.00;84.60;;;;;;5013359;28;20396;-65
2021/10/17 09:27:10;;;;;;;2.70;2.60;;;14.40;86.00;;;;;;5013040;28;20392;-65
2021/10/17 09:29:37;;;;;;;2.57;2.37;;;14.60;81.10;;;;;;5012434;28;20494;-65
2021/10/17 09:32:33;;;;;;;3.87;3.07;;;14.50;80.10;;;;;;5012749;28;20423;-65
2021/10/17 09:35:01;;;;;;;3.90;2.90;;;14.30;80.20;;;;;;5012602;28;20422;-66
2021/10/17 09:37:39;;;;;;;3.33;3.13;;;14.60;79.80;;;;;;5012870;28;20409;-65
2021/10/17 09:40:08;;;;;;;3.10;2.90;;;14.70;77.80;;;;;;5012227;28;20424;-66
2021/10/17 09:42:40;;;;;;;3.57;3.13;;;14.70;77.90;;;;;;5012606;28;20451;-65
2021/10/17 09:45:22;;;;;;;5.73;2.83;;;15.10;83.20;;;;;;5012689;28;20408;-66
2021/10/17 09:47:48;;;;;;;5.70;4.07;;;15.60;82.80;;;;;;5012654;28;20744;-65
2021/10/17 09:50:19;;;;;;;3.03;2.83;;;15.80;78.10;;;;;;5012078;28;20475;-66
2021/10/17 09:52:55;;;;;;;2.77;2.67;;;15.40;73.30;;;;;;5012431;28;20193;-65
2021/10/17 09:55:22;;;;;;;2.97;2.77;;;15.20;73.30;;;;;;5012470;28;20415;-66
2021/10/17 09:57:47;;;;;;;3.97;2.50;;;15.40;73.90;;;;;;5012385;28;20773;-66
2021/10/17 10:00:13;;;;;;;2.63;2.43;;;15.60;73.30;;;;;;5011808;28;20452;-65
2021/10/17 10:02:41;;;;;;;2.60;2.40;;;15.80;72.40;;;;;;5012334;28;20733;-65
2021/10/17 10:05:07;;;;;;;2.77;2.63;;;15.80;73.90;;;;;;5012313;28;20495;-65
2021/10/17 10:07:33;;;;;;;3.47;2.73;;;16.00;71.30;;;;;;5012234;28;20496;-66
2021/10/17 10:10:02;;;;;;;3.10;2.90;;;16.20;73.20;;;;;;5011762;28;20563;-65
2021/10/17 10:12:28;;;;;;;3.40;3.20;;;16.40;73.60;;;;;;5012288;28;20945;-65
2021/10/17 10:14:55;;;;;;;4.37;2.57;;;16.40;69.00;;;;;;5012244;28;20416;-67
2021/10/17 10:17:22;;;;;;;2.93;2.70;;;16.00;71.40;;;;;;5012180;28;20461;-66
2021/10/17 10:19:48;;;;;;;3.07;2.77;;;16.00;71.90;;;;;;5011564;28;20438;-66
2021/10/17 10:22:16;;;;;;;3.43;3.13;;;16.20;74.90;;;;;;5011601;28;20945;-66
2021/10/17 10:24:50;;;;;;;2.93;2.73;;;16.20;70.00;;;;;;5012076;28;20396;-66
2021/10/17 10:27:16;;;;;;;4.90;2.90;;;16.20;70.80;;;;;;5012061;28;20396;-66
2021/10/17 10:29:42;;;;;;;2.93;2.60;;;16.70;72.70;;;;;;5011549;28;20451;-65
2021/10/17 10:32:08;;;;;;;5.03;3.00;;;16.70;69.80;;;;;;5011914;28;20912;-66
2021/10/17 10:34:36;;;;;;;4.27;2.23;;;16.60;70.60;;;;;;5012542;28;20598;-67
2021/10/17 10:37:16;;;;;;;5.60;3.00;;;17.00;74.30;;;;;;5012007;28;20889;-67
2021/10/17 10:40:02;;;;;;;2.80;2.60;;;17.00;71.50;;;;;;5011579;28;20435;-67
2021/10/17 10:42:48;;;;;;;3.00;2.80;;;16.90;71.20;;;;;;5011922;28;20960;-67
2021/10/17 10:45:32;;;;;;;2.57;2.37;;;16.80;66.00;;;;;;5012017;28;20396;-67
2021/10/17 10:48:10;;;;;;;2.50;2.00;;;17.00;71.90;;;;;;5011704;28;20435;-67
2021/10/17 10:50:38;;;;;;;6.50;3.03;;;17.30;73.20;;;;;;5011860;28;20447;-67
2021/10/17 10:53:04;;;;;;;2.67;2.47;;;16.90;65.90;;;;;;5011765;28;20455;-67
2021/10/17 10:55:44;;;;;;;2.80;2.70;;;16.80;67.00;;;;;;5011801;28;20436;-67
2021/10/17 10:58:36;;;;;;;3.53;3.20;;;16.80;65.50;;;;;;5011545;28;20170;-67
2021/10/17 11:01:03;;;;;;;2.60;2.40;;;16.80;69.90;;;;;;5011383;28;20482;-67
2021/10/17 11:03:43;;;;;;;2.40;2.30;;;17.30;71.90;;;;;;5011676;28;20408;-67
2021/10/17 11:06:09;;;;;;;3.97;2.60;;;17.40;68.10;;;;;;5011715;28;20915;-67
2021/10/17 11:08:37;;;;;;;3.23;2.90;;;17.20;65.60;;;;;;5011420;28;20495;-67
2021/10/17 11:11:03;;;;;;;3.30;3.00;;;16.90;68.50;;;;;;5011566;28;20192;-67
2021/10/17 11:13:34;;;;;;;3.40;3.10;;;17.20;66.70;;;;;;5011684;28;20511;-67
2021/10/17 11:16:01;;;;;;;3.27;3.00;;;17.10;67.30;;;;;;5011478;28;20420;-67
2021/10/17 11:18:36;;;;;;;3.43;3.13;;;17.50;68.70;;;;;;5011434;28;20498;-67
2021/10/17 11:21:05;;;;;;;4.47;3.23;;;17.60;68.80;;;;;;5011461;28;20452;-67
2021/10/17 11:23:33;;;;;;;3.70;2.93;;;18.00;66.30;;;;;;5011523;28;20405;-67
2021/10/17 11:26:10;;;;;;;2.90;2.70;;;17.90;66.90;;;;;;5011575;28;20508;-67
2021/10/17 11:28:38;;;;;;;3.13;2.60;;;17.90;67.80;;;;;;5011083;28;20408;-67
2021/10/17 11:31:11;;;;;;;3.17;2.97;;;18.30;69.10;;;;;;5011397;28;20455;-67
2021/10/17 11:33:39;;;;;;;2.90;2.70;;;18.30;65.60;;;;;;5013212;28;20407;-67
2021/10/17 11:36:06;;;;;;;2.40;2.30;;;18.40;66.70;;;;;;5015049;28;20419;-67
2021/10/17 11:38:32;;;;;;;2.97;2.67;;;18.50;68.60;;;;;;5014645;28;20462;-67
2021/10/17 11:41:20;;;;;;;4.20;3.07;;;18.70;68.90;;;;;;5014517;28;20975;-67
2021/10/17 11:43:46;;;;;;;3.20;3.00;;;19.00;72.60;;;;;;5014893;28;20173;-67
2021/10/17 11:46:24;;;;;;;3.23;2.93;;;19.10;69.90;;;;;;5014841;28;20416;-68
2021/10/17 11:49:03;;;;;;;3.73;3.40;;;18.90;64.60;;;;;;5014481;28;20511;-68
2021/10/17 11:51:29;;;;;;;4.70;2.97;;;18.60;66.10;;;;;;5014610;28;20786;-67
2021/10/17 11:53:57;;;;;;;2.30;2.10;;;18.30;64.20;;;;;;5014683;28;20412;-67
2021/10/17 11:56:23;;;;;;;3.00;2.80;;;18.50;65.50;;;;;;5014662;28;20173;-67
2021/10/17 11:58:49;;;;;;;5.00;3.10;;;18.30;63.80;;;;;;5014472;28;20417;-67
2021/10/17 12:01:16;;;;;;;4.03;3.73;;;18.30;60.60;;;;;;5014273;28;20209;-67
2021/10/17 12:03:57;;;;;;;3.17;2.97;;;18.40;62.90;;;;;;5013247;28;20470;-67
2021/10/17 12:06:24;;;;;;;3.50;3.20;;;18.40;64.20;;;;;;5014402;28;20467;-67
2021/10/17 12:08:54;;;;;;;3.20;3.10;;;18.40;64.00;;;;;;5013464;28;20968;-67
2021/10/17 12:11:21;;;;;;;3.07;2.87;;;18.20;66.30;;;;;;5014328;28;20424;-67
2021/10/17 12:13:52;;;;;;;3.00;2.80;;;18.40;68.10;;;;;;5014282;28;20404;-67
2021/10/17 12:16:23;;;;;;;2.87;2.60;;;18.60;66.00;;;;;;5014209;28;20418;-67
2021/10/17 12:18:51;;;;;;;4.27;3.87;;;18.60;66.00;;;;;;5013770;28;20474;-67
2021/10/17 12:21:22;;;;;;;3.30;3.00;;;18.30;63.60;;;;;;5013874;28;20452;-67
2021/10/17 12:23:50;;;;;;;3.13;2.93;;;17.90;61.80;;;;;;5014163;28;20483;-67
2021/10/17 12:26:21;;;;;;;3.57;3.27;;;17.90;63.40;;;;;;5013780;28;20411;-67
2021/10/17 12:29:11;;;;;;;2.47;2.37;;;17.80;65.40;;;;;;5012569;28;20783;-67
2021/10/17 12:31:40;;;;;;;3.70;2.90;;;17.90;71.30;;;;;;5014202;28;20400;-67
2021/10/17 12:34:09;;;;;;;3.03;2.73;;;17.80;65.10;;;;;;5013944;28;20416;-67
2021/10/17 12:36:37;;;;;;;3.47;3.27;;;17.50;66.30;;;;;;5013709;28;20481;-67
2021/10/17 12:39:13;;;;;;;3.10;2.90;;;17.50;69.30;;;;;;5013294;28;20431;-67
2021/10/17 12:41:40;;;;;;;3.57;3.27;;;17.70;70.20;;;;;;5013694;28;20448;-67
2021/10/17 12:44:09;;;;;;;3.10;2.90;;;17.60;66.20;;;;;;5013502;28;20487;-67
2021/10/17 12:46:35;;;;;;;4.03;3.10;;;17.40;64.90;;;;;;5013674;28;20405;-67
2021/10/17 12:49:09;;;;;;;3.13;2.90;;;17.50;68.70;;;;;;5013065;28;20503;-67
2021/10/17 12:52:02;;;;;;;3.70;3.33;;;17.40;68.00;;;;;;5013694;28;20404;-67
2021/10/17 12:54:29;;;;;;;2.77;2.57;;;17.20;66.30;;;;;;5013213;28;20430;-67